createdAt,value
2023-05-15T00:00:49.182Z,3.70
2023-05-15T00:04:03.655Z,4.80
2023-05-15T00:07:05.518Z,3.70
2023-05-15T00:10:08.156Z,5.60
2023-05-15T00:13:09.988Z,4.80
2023-05-15T00:16:12.109Z,3.80
2023-05-15T00:22:15.996Z,4.90
2023-05-15T00:25:18.901Z,3.90
2023-05-15T00:28:20.551Z,3.30
2023-05-15T00:31:22.271Z,5.20
2023-05-15T00:34:24.284Z,4.60
2023-05-15T00:37:25.919Z,4.40
2023-05-15T00:40:28.867Z,3.80
2023-05-15T00:43:30.649Z,4.70
2023-05-15T00:46:35.059Z,3.90
2023-05-15T00:49:37.436Z,4.20
2023-05-15T00:52:39.205Z,5.10
2023-05-15T00:55:41.956Z,2.80
2023-05-15T00:58:45.758Z,2.90
2023-05-15T01:01:47.661Z,3.20
2023-05-15T01:04:49.461Z,3.70
2023-05-15T01:08:22.895Z,4.20
2023-05-15T01:11:35.227Z,4.50
2023-05-15T01:14:38.912Z,4.20
2023-05-15T01:17:41.543Z,5.90
2023-05-15T01:20:51.424Z,4.20
2023-05-15T01:24:22.054Z,5.10
2023-05-15T01:27:49.806Z,3.40
2023-05-15T01:30:54.791Z,4.90
2023-05-15T01:34:02.247Z,4.60
2023-05-15T01:37:06.745Z,4.20
2023-05-15T01:40:11.302Z,5.70
2023-05-15T01:43:21.406Z,8.00
2023-05-15T01:46:25.856Z,5.70
2023-05-15T01:49:30.152Z,6.10
2023-05-15T01:52:38.213Z,6.70
2023-05-15T01:55:41.528Z,7.30
2023-05-15T01:58:43.879Z,5.30
2023-05-15T02:01:46.159Z,7.30
2023-05-15T02:07:51.261Z,6.20
2023-05-15T02:13:57.005Z,9.10
2023-05-15T02:16:58.720Z,7.60
2023-05-15T02:20:04.531Z,5.90
2023-05-15T02:23:06.241Z,8.30
2023-05-15T02:26:29.122Z,11.30
2023-05-15T02:29:36.670Z,6.70
2023-05-15T02:32:47.732Z,7.20
2023-05-15T02:35:56.366Z,9.20
2023-05-15T02:38:58.717Z,7.40
2023-05-15T02:45:03.084Z,8.80
2023-05-15T02:48:06.102Z,8.70
2023-05-15T02:51:07.956Z,5.60
2023-05-15T02:54:09.822Z,7.70
2023-05-15T02:57:11.521Z,9.70
2023-05-15T03:00:15.482Z,9.50
2023-05-15T03:03:17.187Z,8.60
2023-05-15T03:06:18.869Z,8.30
2023-05-15T03:09:20.869Z,7.20
2023-05-15T03:12:22.557Z,10.10
2023-05-15T03:15:24.766Z,7.60
2023-05-15T03:21:28.353Z,7.20
2023-05-15T03:24:30.074Z,7.80
2023-05-15T03:27:31.762Z,10.30
2023-05-15T03:30:33.518Z,8.10
2023-05-15T03:33:35.184Z,9.10
2023-05-15T03:36:36.848Z,8.40
2023-05-15T03:39:39.869Z,8.20
2023-05-15T03:42:41.612Z,9.00
2023-05-15T03:45:43.548Z,8.80
2023-05-15T03:48:45.212Z,9.60
2023-05-15T03:51:46.989Z,11.40
2023-05-15T03:54:49.861Z,10.10
2023-05-15T03:57:53.244Z,7.90
2023-05-15T04:00:55.030Z,11.50
2023-05-15T04:03:56.706Z,10.60
2023-05-15T04:06:58.642Z,10.40
2023-05-15T04:10:00.975Z,8.60
2023-05-15T04:16:04.884Z,8.60
2023-05-15T04:19:06.741Z,6.60
2023-05-15T04:22:08.456Z,8.20
2023-05-15T04:25:11.081Z,7.40
2023-05-15T04:28:13.395Z,9.50
2023-05-15T04:34:16.912Z,8.30
2023-05-15T04:37:18.653Z,8.30
2023-05-15T04:40:20.582Z,7.90
2023-05-15T04:43:22.290Z,8.80
2023-05-15T04:46:24.020Z,6.70
2023-05-15T04:49:25.840Z,8.30
2023-05-15T04:52:27.576Z,11.20
2023-05-15T04:55:30.109Z,7.40
2023-05-15T04:58:32.910Z,9.00
2023-05-15T05:01:34.682Z,9.10
2023-05-15T05:04:36.406Z,8.60
2023-05-15T05:07:38.054Z,7.60
2023-05-15T05:10:39.766Z,8.20
2023-05-15T05:13:41.994Z,9.70
2023-05-15T05:19:48.132Z,7.70
2023-05-15T05:22:49.977Z,8.60
2023-05-15T05:25:51.628Z,9.80
2023-05-15T05:28:53.878Z,9.30
2023-05-15T05:34:57.710Z,9.20
2023-05-15T05:38:00.434Z,10.30
2023-05-15T05:41:02.902Z,11.20
2023-05-15T05:44:04.698Z,11.90
2023-05-15T05:47:06.424Z,11.20
2023-05-15T05:50:08.374Z,12.70
2023-05-15T05:53:10.300Z,12.70
2023-05-15T05:56:12.119Z,12.20
2023-05-15T05:59:14.172Z,13.20
2023-05-15T06:02:16.022Z,13.00
2023-05-15T06:05:17.878Z,13.80
2023-05-15T06:08:20.129Z,16.90
2023-05-15T06:14:26.223Z,13.50
2023-05-15T06:17:27.870Z,13.30
2023-05-15T06:20:29.921Z,15.10
2023-05-15T06:23:31.660Z,14.10
2023-05-15T06:26:33.540Z,13.30
2023-05-15T06:29:35.242Z,14.80
2023-05-15T06:32:36.968Z,14.90
2023-05-15T06:35:38.717Z,16.60
2023-05-15T06:38:40.363Z,15.70
2023-05-15T06:41:42.047Z,17.80
2023-05-15T06:47:46.100Z,16.00
2023-05-15T06:50:47.875Z,17.40
2023-05-15T06:53:49.602Z,19.70
2023-05-15T06:56:51.337Z,17.70
2023-05-15T06:59:53.198Z,18.30
2023-05-15T07:02:54.977Z,20.10
2023-05-15T07:05:56.866Z,21.10
2023-05-15T07:08:58.995Z,20.00
2023-05-15T07:12:00.853Z,17.80
2023-05-15T07:15:03.056Z,16.20
2023-05-15T07:18:06.033Z,17.90
2023-05-15T07:21:07.905Z,16.40
2023-05-15T07:24:09.735Z,14.90
2023-05-15T07:27:11.460Z,10.60
2023-05-15T07:30:13.647Z,10.50
2023-05-15T07:39:20.023Z,7.00
2023-05-15T07:42:21.904Z,4.60
2023-05-15T07:45:24.319Z,6.50
2023-05-15T07:48:26.325Z,8.80
2023-05-15T07:51:28.289Z,6.70
2023-05-15T07:54:31.515Z,3.50
2023-05-15T07:57:36.610Z,3.90
2023-05-15T08:00:42.126Z,4.70
2023-05-15T08:03:43.996Z,4.90
2023-05-15T08:06:45.875Z,5.50
2023-05-15T08:09:47.615Z,5.10
2023-05-15T08:12:50.028Z,5.70
2023-05-15T08:15:51.893Z,6.30
2023-05-15T08:18:57.871Z,4.00
2023-05-15T08:21:59.636Z,3.40
2023-05-15T08:25:03.426Z,5.20
2023-05-15T08:28:05.459Z,7.60
2023-05-15T08:31:07.355Z,4.20
2023-05-15T08:34:09.102Z,6.40
2023-05-15T08:37:10.889Z,7.30
2023-05-15T08:40:12.858Z,5.70
2023-05-15T08:43:17.009Z,4.80
2023-05-15T08:46:19.137Z,4.60
2023-05-15T08:49:31.770Z,9.10
2023-05-15T08:52:34.052Z,8.90
2023-05-15T08:58:37.666Z,5.70
2023-05-15T09:01:39.532Z,7.40
2023-05-15T09:04:41.543Z,9.90
2023-05-15T09:07:45.738Z,7.60
2023-05-15T09:10:49.372Z,12.40
2023-05-15T09:13:51.191Z,12.40
2023-05-15T09:16:53.150Z,12.90
2023-05-15T09:19:55.525Z,11.80
2023-05-15T09:22:59.184Z,19.00
2023-05-15T09:26:01.580Z,11.50
2023-05-15T09:35:47.326Z,10.60
2023-05-15T09:38:49.258Z,8.70
2023-05-15T09:41:52.003Z,8.60
2023-05-15T09:44:53.760Z,14.70
2023-05-15T09:47:58.945Z,7.60
2023-05-15T09:51:01.575Z,7.00
2023-05-15T09:54:03.562Z,6.00
2023-05-15T09:57:12.688Z,4.10
2023-05-15T10:00:19.411Z,7.40
2023-05-15T10:03:21.488Z,6.10
2023-05-15T10:09:31.508Z,4.70
2023-05-15T10:12:35.965Z,5.00
2023-05-15T10:15:39.042Z,5.00
2023-05-15T10:18:44.005Z,6.30
2023-05-15T10:21:47.605Z,3.90
2023-05-15T10:24:57.306Z,6.20
2023-05-15T10:28:00.406Z,5.30
2023-05-15T10:31:02.713Z,4.40
2023-05-15T10:34:06.214Z,3.00
2023-05-15T10:37:08.895Z,6.30
2023-05-15T10:40:12.533Z,6.20
2023-05-15T10:43:14.862Z,6.70
2023-05-15T10:46:16.764Z,7.60
2023-05-15T10:49:19.051Z,4.80
2023-05-15T10:55:23.159Z,10.50
2023-05-15T11:01:32.445Z,5.10
2023-05-15T11:04:34.510Z,4.70
2023-05-15T11:07:36.636Z,5.50
2023-05-15T11:10:38.912Z,5.40
2023-05-15T11:14:02.065Z,5.90
2023-05-15T11:17:11.271Z,5.30
2023-05-15T11:20:13.218Z,5.10
2023-05-15T11:23:15.486Z,6.30
2023-05-15T11:29:34.536Z,5.70
2023-05-15T11:32:52.707Z,8.10
2023-05-15T11:36:01.407Z,5.60
2023-05-15T11:39:10.798Z,8.10
2023-05-15T11:42:13.101Z,9.10
2023-05-15T11:48:17.651Z,5.90
2023-05-15T11:51:21.675Z,6.80
2023-05-15T11:54:24.002Z,6.00
2023-05-15T12:00:27.781Z,5.90
2023-05-15T12:06:35.949Z,6.80
2023-05-15T12:09:38.781Z,10.00
2023-05-15T12:12:42.376Z,9.50
2023-05-15T12:15:45.925Z,9.50
2023-05-15T12:18:49.252Z,5.60
2023-05-15T12:21:51.093Z,4.60
2023-05-15T12:24:52.889Z,7.40
2023-05-15T12:27:55.129Z,6.40
2023-05-15T12:33:59.546Z,6.80
2023-05-15T12:43:12.841Z,9.20
2023-05-15T12:46:14.941Z,9.80
2023-05-15T12:52:28.721Z,10.10
2023-05-15T12:55:34.514Z,7.40
2023-05-15T12:58:38.082Z,6.30
2023-05-15T13:01:41.610Z,7.30
2023-05-15T13:04:46.487Z,8.30
2023-05-15T13:07:48.584Z,5.90
2023-05-15T13:10:57.124Z,7.50
2023-05-15T13:13:58.934Z,3.90
2023-05-15T13:17:04.255Z,4.70
2023-05-15T13:20:07.091Z,4.50
2023-05-15T13:23:10.874Z,4.60
2023-05-15T13:26:13.004Z,4.40
2023-05-15T13:32:17.256Z,5.10
2023-05-15T13:38:21.294Z,5.40
2023-05-15T13:41:23.043Z,3.80
2023-05-15T13:44:24.846Z,4.10
2023-05-15T13:47:26.647Z,4.20
2023-05-15T13:50:28.600Z,1.90
2023-05-15T13:53:30.532Z,6.00
2023-05-15T13:56:32.331Z,8.70
2023-05-15T13:59:34.083Z,3.20
2023-05-15T14:02:36.012Z,7.40
2023-05-15T14:05:37.932Z,2.20
2023-05-15T14:08:39.703Z,3.60
2023-05-15T14:11:41.416Z,4.00
2023-05-15T14:14:46.486Z,3.10
2023-05-15T14:17:48.984Z,2.60
2023-05-15T14:20:51.725Z,3.90
2023-05-15T14:23:53.440Z,6.10
2023-05-15T14:26:55.159Z,5.20
2023-05-15T14:29:57.052Z,7.70
2023-05-15T14:32:58.975Z,8.90
2023-05-15T14:36:01.037Z,3.90
2023-05-15T14:39:03.703Z,5.90
2023-05-15T14:42:05.944Z,1.50
2023-05-15T14:48:11.195Z,2.40
2023-05-15T14:51:13.044Z,1.20
2023-05-15T14:54:14.855Z,3.20
2023-05-15T14:57:19.702Z,5.50
2023-05-15T15:00:21.500Z,6.80
2023-05-15T15:03:24.543Z,3.40
2023-05-15T15:06:27.454Z,5.10
2023-05-15T15:09:29.970Z,2.20
2023-05-15T15:12:31.738Z,2.90
2023-05-15T15:15:34.524Z,3.70
2023-05-15T15:18:36.372Z,1.60
2023-05-15T15:21:38.247Z,5.90
2023-05-15T15:24:40.051Z,4.10
2023-05-15T15:27:41.929Z,2.90
2023-05-15T15:30:43.737Z,3.50
2023-05-15T15:33:45.463Z,1.30
2023-05-15T15:36:47.469Z,1.30
2023-05-15T15:39:49.448Z,2.60
2023-05-15T15:42:51.244Z,2.60
2023-05-15T15:45:53.872Z,3.20
2023-05-15T15:48:55.695Z,2.70
2023-05-15T15:51:57.602Z,3.50
2023-05-15T15:55:02.374Z,4.40
2023-05-15T15:58:04.111Z,4.20
2023-05-15T16:01:05.959Z,4.70
2023-05-15T16:04:08.117Z,2.90
2023-05-15T16:10:13.169Z,9.80
2023-05-15T16:13:15.455Z,3.30
2023-05-15T16:16:17.356Z,5.10
2023-05-15T16:19:19.219Z,5.40
2023-05-15T16:22:21.904Z,7.40
2023-05-15T16:25:23.638Z,2.60
2023-05-15T16:28:25.584Z,1.70
2023-05-15T16:31:27.390Z,4.20
2023-05-15T16:34:29.152Z,2.10
2023-05-15T16:37:30.887Z,2.80
2023-05-15T16:40:32.654Z,1.70
2023-05-15T16:43:35.026Z,1.60
2023-05-15T16:46:37.489Z,4.70
2023-05-15T16:49:40.063Z,2.40
2023-05-15T16:52:46.616Z,4.10
2023-05-15T16:55:48.683Z,6.50
2023-05-15T16:58:52.362Z,6.80
2023-05-15T17:01:54.056Z,3.50
2023-05-15T17:04:57.278Z,6.40
2023-05-15T17:08:00.124Z,5.40
2023-05-15T17:11:02.585Z,3.30
2023-05-15T17:14:04.334Z,16.60
2023-05-15T17:17:05.997Z,3.90
2023-05-15T17:20:08.652Z,7.30
2023-05-15T17:23:10.316Z,3.30
2023-05-15T17:26:12.077Z,2.50
2023-05-15T17:29:14.352Z,4.90
2023-05-15T17:35:18.522Z,4.80
2023-05-15T17:38:20.209Z,2.20
2023-05-15T17:41:21.949Z,3.50
2023-05-15T17:44:29.199Z,4.10
2023-05-15T17:47:31.038Z,3.30
2023-05-15T17:50:37.814Z,3.30
2023-05-15T17:53:39.668Z,2.40
2023-05-15T17:56:41.946Z,2.90
2023-05-15T18:02:45.367Z,1.90
2023-05-15T18:05:47.548Z,2.50
2023-05-15T18:08:50.757Z,2.90
2023-05-15T18:11:52.506Z,4.30
2023-05-15T18:14:54.363Z,4.50
2023-05-15T18:17:56.847Z,6.80
2023-05-15T18:20:58.810Z,5.20
2023-05-15T18:24:00.516Z,4.60
2023-05-15T18:27:03.192Z,3.90
2023-05-15T18:30:05.574Z,3.80
2023-05-15T18:33:07.799Z,9.30
2023-05-15T18:39:12.007Z,4.10
2023-05-15T18:42:14.190Z,5.70
2023-05-15T18:45:15.947Z,6.40
2023-05-15T18:48:17.642Z,8.40
2023-05-15T18:51:19.291Z,7.10
2023-05-15T18:54:20.985Z,5.80
2023-05-15T18:57:22.664Z,5.40
2023-05-15T19:00:37.321Z,7.70
2023-05-15T19:03:40.946Z,5.50
2023-05-15T19:06:43.203Z,6.60
2023-05-15T19:12:46.517Z,6.60
2023-05-15T19:15:52.048Z,7.30
2023-05-15T19:18:54.920Z,7.20
2023-05-15T19:21:56.772Z,7.60
2023-05-15T19:24:58.707Z,10.00
2023-05-15T19:28:00.805Z,8.00
2023-05-15T19:34:05.600Z,9.50
2023-05-15T19:37:07.863Z,8.00
2023-05-15T19:40:09.988Z,7.90
2023-05-15T19:43:13.450Z,6.90
2023-05-15T19:46:16.354Z,7.70
2023-05-15T19:49:18.989Z,8.20
2023-05-15T19:52:20.690Z,9.40
2023-05-15T19:55:22.512Z,9.70
2023-05-15T19:58:24.237Z,11.00
2023-05-15T20:01:26.121Z,10.00
2023-05-15T20:04:28.345Z,11.80
2023-05-15T20:07:30.208Z,11.50
2023-05-15T20:10:31.985Z,10.80
2023-05-15T20:13:33.939Z,13.00
2023-05-15T20:16:36.191Z,12.40
2023-05-15T20:19:38.865Z,11.00
2023-05-15T20:22:45.332Z,9.40
2023-05-15T20:25:48.061Z,10.10
2023-05-15T20:28:49.761Z,12.10
2023-05-15T20:31:51.743Z,11.70
2023-05-15T20:34:55.345Z,13.40
2023-05-15T20:37:56.961Z,13.90
2023-05-15T20:40:59.406Z,12.00
2023-05-15T20:44:01.344Z,9.20
2023-05-15T20:47:03.327Z,8.50
2023-05-15T20:50:05.747Z,9.10
2023-05-15T20:53:08.244Z,9.80
2023-05-15T20:56:09.952Z,8.60
2023-05-15T20:59:12.004Z,8.70
2023-05-15T21:02:13.677Z,7.30
2023-05-15T21:05:15.482Z,10.60
2023-05-15T21:08:17.352Z,8.60
2023-05-15T21:11:19.427Z,8.10
2023-05-15T21:14:21.133Z,7.80
2023-05-15T21:17:22.846Z,7.40
2023-05-15T21:20:26.139Z,9.30
2023-05-15T21:23:28.145Z,8.00
2023-05-15T21:26:30.430Z,8.10
2023-05-15T21:29:32.137Z,8.30
2023-05-15T21:32:33.935Z,8.30
2023-05-15T21:35:35.671Z,7.20
2023-05-15T21:38:37.592Z,8.40
2023-05-15T21:41:39.312Z,8.20
2023-05-15T21:44:41.069Z,7.70
2023-05-15T21:47:42.804Z,6.80
2023-05-15T21:50:44.508Z,7.70
2023-05-15T21:53:46.191Z,8.70
2023-05-15T21:56:47.988Z,7.30
2023-05-15T21:59:49.772Z,6.20
2023-05-15T22:02:51.547Z,7.10
2023-05-15T22:05:53.356Z,6.60
2023-05-15T22:08:55.195Z,8.10
2023-05-15T22:11:56.863Z,11.10
2023-05-15T22:14:59.884Z,6.10
2023-05-15T22:18:02.873Z,7.50
2023-05-15T22:21:04.712Z,6.80
2023-05-15T22:24:06.616Z,7.90
2023-05-15T22:27:08.410Z,7.20
2023-05-15T22:30:10.510Z,6.60
2023-05-15T22:33:12.293Z,7.70
2023-05-15T22:36:14.772Z,8.50
2023-05-15T22:42:18.689Z,6.70
2023-05-15T22:45:20.535Z,8.00
2023-05-15T22:48:22.616Z,7.10
2023-05-15T22:51:24.291Z,7.60
2023-05-15T22:54:26.084Z,6.20
2023-05-15T22:57:28.361Z,7.20
2023-05-15T23:03:32.876Z,7.50
2023-05-15T23:06:34.892Z,7.90
2023-05-15T23:09:36.615Z,6.50
2023-05-15T23:12:39.088Z,5.10
2023-05-15T23:15:40.899Z,8.30
2023-05-15T23:18:42.852Z,6.50
2023-05-15T23:21:44.556Z,6.80
2023-05-15T23:24:46.230Z,6.40
2023-05-15T23:27:49.090Z,8.10
2023-05-15T23:30:54.236Z,6.50
2023-05-15T23:33:56.006Z,8.10
2023-05-15T23:36:57.658Z,7.10
2023-05-15T23:39:59.433Z,9.30
2023-05-15T23:43:01.066Z,8.00
2023-05-15T23:46:02.818Z,7.80
2023-05-15T23:49:04.515Z,7.70
2023-05-15T23:52:06.500Z,8.70
2023-05-15T23:55:08.575Z,8.50
2023-05-15T23:58:10.200Z,9.80
